Time;durP1;ratioP1;P1;durP2;ratioP2;P2;SDS_P1;SDS_P2;PMS_P1;PMS_P2;Temp;Humidity;BMP_temperature;BMP_pressure;BME280_temperature;BME280_humidity;BME280_pressure;Samples;Min_cycle;Max_cycle;Signal;HPM_P1;HPM_P2
2021/08/26 00:00:42;;;;;;;8.43;6.05;;;16.60;99.90;;;;;;5074350;28;20847;-71
2021/08/26 00:05:55;;;;;;;7.15;5.50;;;16.50;99.90;;;;;;5074219;28;20209;-72
2021/08/26 00:08:24;;;;;;;7.38;6.20;;;16.60;99.90;;;;;;5073998;28;20611;-71
2021/08/26 00:10:53;;;;;;;6.72;5.25;;;16.60;99.90;;;;;;5074199;28;20213;-71
2021/08/26 00:13:22;;;;;;;7.10;6.20;;;16.60;99.90;;;;;;5073634;28;20688;-72
2021/08/26 00:15:50;;;;;;;7.60;5.95;;;16.50;99.90;;;;;;5073957;28;20202;-70
2021/08/26 00:18:21;;;;;;;9.23;6.35;;;16.40;99.90;;;;;;5073437;28;20221;-70
2021/08/26 00:20:51;;;;;;;6.30;5.40;;;16.30;99.90;;;;;;5074068;28;20213;-71
2021/08/26 00:23:19;;;;;;;6.63;5.38;;;16.30;99.90;;;;;;5073869;28;20252;-71
2021/08/26 00:25:46;;;;;;;7.05;5.35;;;16.30;99.90;;;;;;5073443;28;20206;-71
2021/08/26 00:28:13;;;;;;;9.10;6.50;;;16.30;99.90;;;;;;5073544;28;20212;-72
2021/08/26 00:30:40;;;;;;;8.57;5.47;;;16.30;99.90;;;;;;5073682;28;20691;-71
2021/08/26 00:33:07;;;;;;;7.40;5.63;;;16.30;99.90;;;;;;5073546;28;20229;-72
2021/08/26 00:35:35;;;;;;;6.88;5.88;;;16.30;99.90;;;;;;5073519;28;20210;-73
2021/08/26 00:38:01;;;;;;;7.88;6.18;;;16.30;99.90;;;;;;5073415;28;20206;-71
2021/08/26 00:40:30;;;;;;;6.32;5.32;;;16.30;99.90;;;;;;5073260;28;20747;-71
2021/08/26 00:42:58;;;;;;;8.52;5.35;;;16.30;99.90;;;;;;5073194;28;20731;-71
2021/08/26 00:45:25;;;;;;;7.82;5.50;;;16.30;99.90;;;;;;5073486;28;20278;-70
2021/08/26 00:47:52;;;;;;;7.32;5.50;;;16.30;99.90;;;;;;5073289;28;20201;-71
2021/08/26 00:50:19;;;;;;;8.38;5.65;;;16.30;99.90;;;;;;5073107;28;20276;-71
2021/08/26 00:52:47;;;;;;;8.32;6.03;;;16.30;99.90;;;;;;5072910;28;20293;-72
2021/08/26 00:55:14;;;;;;;8.52;6.28;;;16.20;99.90;;;;;;5072921;28;20209;-72
2021/08/26 00:57:42;;;;;;;6.82;5.53;;;16.20;99.90;;;;;;5072731;28;20206;-72
2021/08/26 01:00:12;;;;;;;8.85;5.82;;;16.20;99.90;;;;;;5073243;28;20210;-73
2021/08/26 01:02:45;;;;;;;8.38;6.07;;;16.20;99.90;;;;;;5072774;28;20218;-72
2021/08/26 01:05:19;;;;;;;7.15;5.60;;;16.10;99.90;;;;;;5073151;28;20216;-72
2021/08/26 01:07:55;;;;;;;6.60;5.45;;;16.00;99.90;;;;;;5072843;28;20240;-73
2021/08/26 01:10:25;;;;;;;7.32;5.80;;;15.80;99.90;;;;;;5073036;28;20205;-72
2021/08/26 01:12:56;;;;;;;6.22;5.00;;;15.70;99.90;;;;;;5072966;28;20239;-72
2021/08/26 01:15:24;;;;;;;6.68;4.93;;;15.50;99.90;;;;;;5072916;28;20212;-73
2021/08/26 01:17:51;;;;;;;8.65;5.05;;;15.50;99.90;;;;;;5072431;28;20209;-72
2021/08/26 01:20:18;;;;;;;6.20;5.55;;;15.50;99.90;;;;;;5072875;28;20238;-72
2021/08/26 01:22:46;;;;;;;6.13;5.22;;;15.50;99.90;;;;;;5072793;28;20215;-72
2021/08/26 01:25:14;;;;;;;9.23;5.68;;;15.50;99.90;;;;;;5072887;28;20290;-76
2021/08/26 01:27:44;;;;;;;6.18;5.40;;;15.50;99.90;;;;;;5072882;28;20206;-76
2021/08/26 01:30:14;;;;;;;8.73;5.30;;;15.60;99.90;;;;;;5072112;28;20292;-76
2021/08/26 01:32:42;;;;;;;5.93;4.88;;;15.60;99.90;;;;;;5073006;28;20220;-76
2021/08/26 01:35:11;;;;;;;6.82;4.95;;;15.60;99.90;;;;;;5073278;28;20208;-74
2021/08/26 01:37:38;;;;;;;5.75;4.60;;;15.60;99.90;;;;;;5073029;28;20202;-72
2021/08/26 01:40:07;;;;;;;6.88;5.65;;;15.70;99.90;;;;;;5074024;28;20299;-72
2021/08/26 01:42:34;;;;;;;7.25;5.57;;;15.60;99.90;;;;;;5073189;28;20316;-72
2021/08/26 01:45:04;;;;;;;7.88;6.05;;;15.60;99.90;;;;;;5074206;28;20208;-71
2021/08/26 01:47:31;;;;;;;8.45;6.05;;;15.60;99.90;;;;;;5073481;28;20216;-72
2021/08/26 01:49:58;;;;;;;6.53;4.95;;;15.60;99.90;;;;;;5073754;28;20262;-72
2021/08/26 01:52:27;;;;;;;6.43;5.75;;;15.40;99.90;;;;;;5073287;28;20638;-71
2021/08/26 01:54:55;;;;;;;6.35;5.47;;;15.30;99.90;;;;;;5073626;28;20215;-72
2021/08/26 01:57:23;;;;;;;7.63;4.70;;;15.40;99.90;;;;;;5073908;28;20209;-72
2021/08/26 01:59:50;;;;;;;7.72;5.50;;;15.40;99.90;;;;;;5073578;28;20243;-72
2021/08/26 02:02:19;;;;;;;6.50;5.60;;;15.20;99.90;;;;;;5073707;28;20225;-72
2021/08/26 02:04:46;;;;;;;6.70;5.00;;;15.20;99.90;;;;;;5073570;28;20558;-71
2021/08/26 02:07:13;;;;;;;6.28;4.85;;;15.20;99.90;;;;;;5073310;28;20300;-72
2021/08/26 02:09:40;;;;;;;6.90;4.97;;;15.10;99.90;;;;;;5073780;28;20673;-71
2021/08/26 02:12:07;;;;;;;6.35;4.82;;;15.00;99.90;;;;;;5073747;28;20314;-71
2021/08/26 02:14:34;;;;;;;5.70;4.50;;;15.00;99.90;;;;;;5073362;28;20232;-71
2021/08/26 02:17:01;;;;;;;7.82;5.43;;;15.10;99.90;;;;;;5073498;28;20200;-71
2021/08/26 02:19:29;;;;;;;5.97;5.05;;;15.20;99.90;;;;;;5073582;28;20204;-71
2021/08/26 02:21:57;;;;;;;7.40;5.65;;;15.20;99.90;;;;;;5073317;28;20228;-71
2021/08/26 02:24:24;;;;;;;7.75;5.53;;;15.10;99.90;;;;;;5073922;28;20201;-72
2021/08/26 02:26:51;;;;;;;8.40;5.00;;;15.10;99.90;;;;;;5072941;28;20236;-72
2021/08/26 02:29:18;;;;;;;7.10;4.80;;;15.20;99.90;;;;;;5073154;28;20206;-72
2021/08/26 02:31:45;;;;;;;6.68;5.50;;;15.10;99.90;;;;;;5073354;28;20315;-72
2021/08/26 02:34:12;;;;;;;7.20;5.25;;;15.10;99.90;;;;;;5073155;28;20315;-72
2021/08/26 02:36:40;;;;;;;5.50;4.75;;;15.10;99.90;;;;;;5072809;28;20757;-71
2021/08/26 02:39:07;;;;;;;5.90;4.90;;;15.10;99.90;;;;;;5072863;28;20232;-72
2021/08/26 02:41:34;;;;;;;8.25;5.38;;;14.90;99.90;;;;;;5074491;28;20323;-72
2021/08/26 02:44:01;;;;;;;6.18;4.40;;;14.90;99.90;;;;;;5076909;28;20203;-72
2021/08/26 02:46:28;;;;;;;6.85;6.03;;;15.00;99.90;;;;;;5076465;28;20205;-72
2021/08/26 02:48:55;;;;;;;6.78;5.20;;;15.00;99.90;;;;;;5077045;28;20201;-72
2021/08/26 02:51:22;;;;;;;6.68;4.40;;;15.00;99.90;;;;;;5076960;28;20554;-72
2021/08/26 02:53:50;;;;;;;5.80;4.70;;;15.10;99.90;;;;;;5077180;28;20683;-71
2021/08/26 02:56:17;;;;;;;8.23;5.50;;;15.10;99.90;;;;;;5076527;28;20605;-72
2021/08/26 02:58:44;;;;;;;6.22;5.20;;;15.10;99.90;;;;;;5077006;28;20208;-72
2021/08/26 03:01:10;;;;;;;6.50;5.38;;;15.20;99.90;;;;;;5076887;28;20209;-72
2021/08/26 03:03:37;;;;;;;5.15;4.50;;;15.20;99.90;;;;;;5076753;28;20697;-72
2021/08/26 03:06:04;;;;;;;8.10;4.63;;;15.20;99.90;;;;;;5076244;28;20216;-72
2021/08/26 03:08:32;;;;;;;6.40;5.07;;;15.30;99.90;;;;;;5076500;28;20213;-72
2021/08/26 03:11:00;;;;;;;6.30;5.45;;;15.40;99.90;;;;;;5076307;28;20664;-72
2021/08/26 03:13:27;;;;;;;9.38;4.82;;;15.50;99.90;;;;;;5076640;28;20230;-72
2021/08/26 03:15:54;;;;;;;6.50;5.50;;;15.60;99.90;;;;;;5076048;28;20209;-71
2021/08/26 03:18:21;;;;;;;5.95;5.13;;;15.70;99.90;;;;;;5076688;28;20612;-72
2021/08/26 03:20:48;;;;;;;6.88;5.45;;;15.80;99.90;;;;;;5076647;28;20300;-72
2021/08/26 03:23:15;;;;;;;5.38;4.75;;;15.80;99.90;;;;;;5076443;28;20228;-71
2021/08/26 03:25:41;;;;;;;5.45;4.63;;;15.80;99.90;;;;;;5075909;28;20205;-72
2021/08/26 03:28:10;;;;;;;7.35;5.72;;;15.80;99.90;;;;;;5076441;28;20674;-71
2021/08/26 03:30:36;;;;;;;8.10;6.15;;;15.70;99.90;;;;;;5076403;28;20206;-71
2021/08/26 03:33:04;;;;;;;7.97;6.28;;;15.60;99.90;;;;;;5076498;28;20261;-71
2021/08/26 03:35:31;;;;;;;8.82;6.25;;;15.50;99.90;;;;;;5075762;28;20215;-71
2021/08/26 03:37:58;;;;;;;8.63;6.60;;;15.30;99.90;;;;;;5075940;28;20206;-71
2021/08/26 03:40:26;;;;;;;7.05;6.13;;;15.20;99.90;;;;;;5076069;28;20203;-71
2021/08/26 03:42:53;;;;;;;9.13;6.20;;;15.10;99.90;;;;;;5076173;28;20237;-71
2021/08/26 03:45:21;;;;;;;7.38;5.63;;;15.00;99.90;;;;;;5075583;28;20211;-71
2021/08/26 03:47:48;;;;;;;8.40;5.65;;;14.90;99.90;;;;;;5076102;28;20295;-71
2021/08/26 03:50:15;;;;;;;6.63;5.60;;;14.80;99.90;;;;;;5075723;28;20295;-71
2021/08/26 03:52:42;;;;;;;7.97;5.55;;;14.80;99.90;;;;;;5075616;28;20315;-71
2021/08/26 03:55:10;;;;;;;8.55;6.00;;;15.00;99.90;;;;;;5075511;28;20224;-72
2021/08/26 03:57:37;;;;;;;6.45;5.60;;;15.00;99.90;;;;;;5075861;28;20204;-71
2021/08/26 04:00:04;;;;;;;7.82;6.20;;;15.20;99.90;;;;;;5075778;28;20208;-71
2021/08/26 04:02:32;;;;;;;7.32;5.70;;;15.20;99.90;;;;;;5075497;28;20221;-72
2021/08/26 04:04:59;;;;;;;6.10;4.85;;;15.40;99.90;;;;;;5075258;28;20206;-71
2021/08/26 04:07:30;;;;;;;6.72;5.15;;;15.40;99.90;;;;;;5075544;28;20231;-72
2021/08/26 04:09:57;;;;;;;6.63;4.72;;;15.40;99.90;;;;;;5075451;28;20660;-71
2021/08/26 04:12:24;;;;;;;6.18;4.68;;;15.50;99.90;;;;;;5075714;28;20324;-71
2021/08/26 04:14:51;;;;;;;6.78;5.00;;;15.40;99.90;;;;;;5075612;28;20315;-71
2021/08/26 04:17:18;;;;;;;7.68;6.13;;;15.30;99.90;;;;;;5075181;28;20311;-71
2021/08/26 04:19:46;;;;;;;7.15;5.80;;;15.20;99.90;;;;;;5075211;28;20211;-72
2021/08/26 04:22:13;;;;;;;6.82;5.72;;;15.20;99.90;;;;;;5074877;28;20240;-71
2021/08/26 04:24:40;;;;;;;8.65;5.97;;;15.20;99.90;;;;;;5075214;28;20212;-71
2021/08/26 04:27:07;;;;;;;8.55;6.15;;;15.20;99.90;;;;;;5075155;28;20201;-71
2021/08/26 04:29:34;;;;;;;6.82;5.53;;;15.10;99.90;;;;;;5075322;28;20577;-72
2021/08/26 04:32:01;;;;;;;7.35;5.30;;;15.30;99.90;;;;;;5074653;28;20315;-72
2021/08/26 04:34:28;;;;;;;6.53;5.80;;;15.40;99.90;;;;;;5074877;28;20324;-72
2021/08/26 04:36:56;;;;;;;7.10;5.25;;;15.40;99.90;;;;;;5074928;28;20651;-72
2021/08/26 04:39:23;;;;;;;7.75;5.60;;;15.40;99.90;;;;;;5074953;28;20277;-71
2021/08/26 04:41:50;;;;;;;7.30;5.70;;;15.40;99.90;;;;;;5074509;28;20324;-72
2021/08/26 04:44:17;;;;;;;7.55;5.78;;;15.50;99.90;;;;;;5074384;28;20296;-71
2021/08/26 04:46:43;;;;;;;6.60;5.50;;;15.40;99.90;;;;;;5074741;28;20304;-72
2021/08/26 04:49:10;;;;;;;8.45;6.03;;;15.40;99.90;;;;;;5074717;28;20299;-72
2021/08/26 04:51:37;;;;;;;6.15;5.55;;;15.40;99.90;;;;;;5074559;28;20713;-72
2021/08/26 04:54:05;;;;;;;6.60;5.57;;;15.40;99.90;;;;;;5074982;28;20233;-72
2021/08/26 04:56:32;;;;;;;7.45;5.57;;;15.50;99.90;;;;;;5074257;28;20297;-72
2021/08/26 04:58:59;;;;;;;7.43;6.25;;;15.40;99.90;;;;;;5074287;28;20296;-72
2021/08/26 05:01:26;;;;;;;8.75;6.50;;;15.40;99.90;;;;;;5074359;28;20202;-71
2021/08/26 05:03:53;;;;;;;6.43;5.78;;;15.30;99.90;;;;;;5073534;28;20289;-72
2021/08/26 05:06:20;;;;;;;8.32;7.00;;;15.50;99.90;;;;;;5074242;28;20294;-71
2021/08/26 05:08:46;;;;;;;8.07;6.47;;;15.50;99.90;;;;;;5074538;28;20204;-71
2021/08/26 05:11:20;;;;;;;8.48;6.47;;;15.40;99.90;;;;;;5074730;28;20296;-72
2021/08/26 05:13:47;;;;;;;8.63;6.47;;;15.40;99.90;;;;;;5074255;28;20209;-72
2021/08/26 05:16:14;;;;;;;6.57;5.95;;;15.50;99.90;;;;;;5074057;28;20209;-71
2021/08/26 05:18:41;;;;;;;7.85;6.45;;;15.50;99.90;;;;;;5074309;28;20206;-72
2021/08/26 05:21:08;;;;;;;9.07;6.95;;;15.70;99.90;;;;;;5074345;28;20236;-72
2021/08/26 05:23:35;;;;;;;8.93;7.47;;;15.70;99.90;;;;;;5074256;28;20767;-71
2021/08/26 05:26:02;;;;;;;7.68;6.30;;;15.80;99.90;;;;;;5073654;28;20205;-71
2021/08/26 05:28:30;;;;;;;7.43;6.50;;;15.90;99.90;;;;;;5074005;28;20299;-71
2021/08/26 05:30:57;;;;;;;8.13;6.07;;;16.00;99.90;;;;;;5074039;28;20256;-72
2021/08/26 05:33:24;;;;;;;10.23;6.82;;;16.00;99.90;;;;;;5073903;28;20316;-72
2021/08/26 05:35:50;;;;;;;7.55;5.68;;;16.10;99.90;;;;;;5073742;28;20212;-72
2021/08/26 05:38:17;;;;;;;7.35;5.70;;;16.10;99.90;;;;;;5074156;28;20680;-72
2021/08/26 05:40:44;;;;;;;6.72;5.85;;;16.10;99.90;;;;;;5073712;28;20212;-72
2021/08/26 05:43:11;;;;;;;7.95;6.70;;;16.00;99.90;;;;;;5073988;28;20319;-72
2021/08/26 05:45:39;;;;;;;8.93;6.60;;;16.00;99.90;;;;;;5073438;28;20206;-71
2021/08/26 05:48:07;;;;;;;9.55;6.10;;;16.00;99.90;;;;;;5074006;28;20209;-72
2021/08/26 05:50:34;;;;;;;7.40;6.65;;;16.00;99.90;;;;;;5074056;28;20213;-72
2021/08/26 05:53:00;;;;;;;8.43;6.57;;;15.90;99.90;;;;;;5073613;28;20222;-72
2021/08/26 05:55:27;;;;;;;6.53;5.68;;;15.90;99.90;;;;;;5073468;28;20256;-71
2021/08/26 05:57:54;;;;;;;8.30;6.47;;;16.00;99.90;;;;;;5073989;28;20205;-71
2021/08/26 06:00:21;;;;;;;8.13;6.60;;;16.20;99.90;;;;;;5073838;28;20292;-72
2021/08/26 06:02:49;;;;;;;7.50;6.03;;;16.20;99.90;;;;;;5073286;28;20236;-72
2021/08/26 06:05:16;;;;;;;7.13;6.32;;;16.30;99.90;;;;;;5073534;28;20201;-72
2021/08/26 06:07:43;;;;;;;8.10;6.25;;;16.30;99.90;;;;;;5073542;28;20222;-72
2021/08/26 06:10:11;;;;;;;9.70;7.68;;;16.40;99.90;;;;;;5073554;28;20209;-72
2021/08/26 06:12:39;;;;;;;7.88;6.07;;;16.30;99.90;;;;;;5074005;28;20229;-72
2021/08/26 06:15:07;;;;;;;8.75;6.65;;;16.40;99.90;;;;;;5074302;28;20589;-72
2021/08/26 06:17:34;;;;;;;9.25;6.75;;;16.40;99.90;;;;;;5077859;28;20205;-72
2021/08/26 06:20:02;;;;;;;9.70;6.47;;;16.50;99.90;;;;;;5077831;28;20210;-72
2021/08/26 06:22:29;;;;;;;7.72;5.80;;;16.50;99.90;;;;;;5077484;28;20568;-72
2021/08/26 06:24:56;;;;;;;9.40;6.97;;;16.50;99.90;;;;;;5077254;28;20293;-72
2021/08/26 06:27:23;;;;;;;9.35;6.90;;;16.60;99.90;;;;;;5077516;28;20296;-72
2021/08/26 06:29:50;;;;;;;8.38;6.65;;;16.60;99.90;;;;;;5077495;28;20625;-71
2021/08/26 06:32:17;;;;;;;11.70;7.30;;;16.60;99.90;;;;;;5077428;28;20330;-71
2021/08/26 06:34:44;;;;;;;10.20;7.65;;;16.60;99.90;;;;;;5076916;28;20285;-71
2021/08/26 06:37:12;;;;;;;8.48;6.70;;;16.60;99.90;;;;;;5077219;28;20293;-71
2021/08/26 06:39:39;;;;;;;9.05;6.40;;;16.70;99.90;;;;;;5077208;28;20292;-71
2021/08/26 06:42:06;;;;;;;8.10;6.68;;;16.70;99.90;;;;;;5076597;28;20266;-72
2021/08/26 06:44:33;;;;;;;7.07;6.10;;;16.70;99.90;;;;;;5077612;28;20208;-71
2021/08/26 06:47:00;;;;;;;12.07;6.70;;;16.70;99.90;;;;;;5077130;28;20205;-71
2021/08/26 06:49:26;;;;;;;11.30;7.53;;;16.70;99.90;;;;;;5076661;28;20293;-71
2021/08/26 06:51:53;;;;;;;10.23;7.80;;;16.70;99.90;;;;;;5076622;28;20264;-71
2021/08/26 06:54:21;;;;;;;10.02;7.10;;;16.70;99.90;;;;;;5077104;28;20314;-71
2021/08/26 06:56:48;;;;;;;9.63;7.30;;;16.70;99.90;;;;;;5076733;28;20293;-71
2021/08/26 06:59:15;;;;;;;9.20;6.68;;;16.70;99.90;;;;;;5076614;28;20205;-71
2021/08/26 07:01:42;;;;;;;9.73;6.38;;;16.70;99.90;;;;;;5076962;28;20226;-71
2021/08/26 07:04:09;;;;;;;12.90;7.40;;;16.70;99.90;;;;;;5076603;28;20226;-72
2021/08/26 07:06:35;;;;;;;9.85;6.97;;;16.80;99.90;;;;;;5076040;28;20692;-72
2021/08/26 07:09:03;;;;;;;9.15;6.43;;;16.80;99.90;;;;;;5076740;28;20298;-71
2021/08/26 07:11:31;;;;;;;9.35;7.35;;;16.90;99.90;;;;;;5076544;28;20297;-71
2021/08/26 07:13:58;;;;;;;8.50;7.00;;;16.70;99.90;;;;;;5076969;28;20205;-71
2021/08/26 07:16:25;;;;;;;10.55;7.15;;;16.70;99.90;;;;;;5075955;28;20237;-71
2021/08/26 07:18:52;;;;;;;7.80;6.43;;;16.70;99.90;;;;;;5076293;28;20300;-71
2021/08/26 07:21:19;;;;;;;12.95;7.70;;;16.70;99.90;;;;;;5076170;28;20729;-71
2021/08/26 07:23:45;;;;;;;9.63;8.05;;;16.70;99.90;;;;;;5076376;28;20213;-72
2021/08/26 07:26:12;;;;;;;10.95;7.80;;;16.80;99.90;;;;;;5075513;28;20615;-72
2021/08/26 07:28:40;;;;;;;9.52;7.80;;;16.70;99.90;;;;;;5075997;28;20199;-72
2021/08/26 07:31:07;;;;;;;10.93;8.73;;;16.80;99.90;;;;;;5076125;28;20206;-72
2021/08/26 07:33:34;;;;;;;8.65;7.13;;;16.80;99.90;;;;;;5075946;28;20320;-72
2021/08/26 07:36:04;;;;;;;10.20;7.90;;;16.90;99.90;;;;;;5075537;28;20257;-72
2021/08/26 07:38:31;;;;;;;13.45;8.40;;;17.00;99.90;;;;;;5075881;28;20627;-72
2021/08/26 07:40:58;;;;;;;8.70;7.32;;;17.00;99.90;;;;;;5075657;28;20199;-72
2021/08/26 07:43:30;;;;;;;9.07;6.95;;;17.00;99.90;;;;;;5076327;28;20240;-72
2021/08/26 07:45:58;;;;;;;15.65;8.10;;;16.90;99.90;;;;;;5075744;28;20212;-71
2021/08/26 07:48:25;;;;;;;11.35;7.93;;;16.80;99.90;;;;;;5075642;28;20294;-71
2021/08/26 07:50:56;;;;;;;11.43;8.45;;;16.70;99.90;;;;;;5076189;28;20292;-71
2021/08/26 07:53:23;;;;;;;11.32;8.23;;;16.70;99.90;;;;;;5076072;28;20234;-71
2021/08/26 07:55:50;;;;;;;9.00;7.88;;;16.80;99.90;;;;;;5075467;28;20241;-72
2021/08/26 07:58:17;;;;;;;9.70;7.60;;;16.70;99.90;;;;;;5075578;28;20207;-71
2021/08/26 08:00:44;;;;;;;11.27;8.18;;;16.70;99.90;;;;;;5075605;28;20245;-72
2021/08/26 08:03:12;;;;;;;10.45;8.10;;;16.70;99.90;;;;;;5075807;28;20333;-72
2021/08/26 08:05:39;;;;;;;8.85;7.32;;;16.70;99.90;;;;;;5075320;28;20290;-72
2021/08/26 08:08:06;;;;;;;8.95;7.38;;;16.80;99.90;;;;;;5075922;28;20207;-72
2021/08/26 08:10:33;;;;;;;8.98;6.90;;;16.80;99.90;;;;;;5075384;28;20222;-72
2021/08/26 08:13:00;;;;;;;8.13;6.75;;;16.80;99.90;;;;;;5075156;28;20219;-72
2021/08/26 08:15:27;;;;;;;8.93;6.70;;;16.80;99.90;;;;;;5079495;28;20304;-71
2021/08/26 08:17:53;;;;;;;9.00;7.38;;;16.80;99.90;;;;;;5092520;28;20284;-72
2021/08/26 08:20:22;;;;;;;9.65;7.80;;;16.70;99.90;;;;;;5083855;28;20251;-72
2021/08/26 08:22:49;;;;;;;9.10;8.05;;;16.80;99.90;;;;;;5095614;28;20309;-72
2021/08/26 08:25:16;;;;;;;11.07;8.38;;;16.80;99.90;;;;;;5095158;28;20280;-72
2021/08/26 08:27:43;;;;;;;9.73;8.57;;;16.60;99.90;;;;;;5095339;28;20208;-71
2021/08/26 08:30:10;;;;;;;12.25;9.02;;;16.60;99.90;;;;;;5095333;28;20300;-72
2021/08/26 08:32:37;;;;;;;13.45;8.60;;;16.40;99.90;;;;;;5095326;28;20221;-72
2021/08/26 08:35:05;;;;;;;12.60;8.50;;;16.30;99.90;;;;;;5095114;28;20777;-71
2021/08/26 08:37:33;;;;;;;11.50;9.10;;;16.10;99.90;;;;;;5095464;28;20207;-72
2021/08/26 08:40:00;;;;;;;12.18;9.02;;;16.10;99.90;;;;;;5095127;28;20204;-72
2021/08/26 08:42:31;;;;;;;12.82;9.60;;;16.10;99.90;;;;;;5095091;28;20239;-72
2021/08/26 08:44:58;;;;;;;11.38;9.40;;;16.10;99.90;;;;;;5095007;28;20247;-72
2021/08/26 08:47:29;;;;;;;10.45;8.98;;;16.10;99.90;;;;;;5095212;28;20224;-72
2021/08/26 08:49:56;;;;;;;13.02;9.65;;;16.20;99.90;;;;;;5095491;28;20212;-72
2021/08/26 08:52:24;;;;;;;13.40;10.02;;;16.30;99.90;;;;;;5094872;28;20221;-72
2021/08/26 08:54:53;;;;;;;11.38;8.90;;;16.30;99.90;;;;;;5094409;28;20334;-72
2021/08/26 08:57:20;;;;;;;10.70;9.30;;;16.40;99.90;;;;;;5094907;28;20209;-72
2021/08/26 08:59:47;;;;;;;13.25;10.23;;;16.40;99.90;;;;;;5094908;28;20222;-72
2021/08/26 09:02:15;;;;;;;11.60;10.40;;;16.50;99.90;;;;;;5094646;28;20315;-72
2021/08/26 09:04:56;;;;;;;12.48;9.30;;;16.50;99.90;;;;;;5094524;28;20289;-72
2021/08/26 09:07:27;;;;;;;11.23;9.52;;;16.50;99.90;;;;;;5094667;28;20209;-72
2021/08/26 09:09:55;;;;;;;11.80;9.15;;;16.40;99.90;;;;;;5094520;28;20201;-72
2021/08/26 09:12:44;;;;;;;12.35;9.55;;;16.40;99.90;;;;;;5094278;28;20251;-72
2021/08/26 09:15:13;;;;;;;12.80;10.23;;;16.40;99.90;;;;;;5094106;28;20253;-72
2021/08/26 09:17:40;;;;;;;12.32;9.35;;;16.40;99.90;;;;;;5094410;28;20202;-72
2021/08/26 09:20:10;;;;;;;11.70;9.48;;;16.50;99.90;;;;;;5094494;28;20240;-72
2021/08/26 09:22:37;;;;;;;13.00;9.85;;;16.50;99.90;;;;;;5094435;28;20222;-72
2021/08/26 09:25:07;;;;;;;12.00;9.50;;;16.50;99.90;;;;;;5094008;28;20208;-72
2021/08/26 09:27:39;;;;;;;14.30;11.00;;;16.50;99.90;;;;;;5094237;28;20229;-72
2021/08/26 09:30:09;;;;;;;12.25;9.85;;;16.50;99.90;;;;;;5094254;28;20739;-72
2021/08/26 09:32:37;;;;;;;14.35;11.43;;;16.50;99.90;;;;;;5094687;28;20230;-72
2021/08/26 09:35:17;;;;;;;12.18;10.45;;;16.50;99.90;;;;;;5093975;28;20317;-72
2021/08/26 09:37:47;;;;;;;12.02;9.80;;;16.50;99.90;;;;;;5094673;28;20537;-72
2021/08/26 09:40:17;;;;;;;13.43;10.75;;;16.50;99.90;;;;;;5093962;28;20206;-72
2021/08/26 09:42:44;;;;;;;14.88;11.38;;;16.40;99.90;;;;;;5093718;28;20239;-71
2021/08/26 09:45:21;;;;;;;14.88;9.55;;;16.40;99.90;;;;;;5093868;28;20582;-71
2021/08/26 09:48:16;;;;;;;11.57;9.80;;;16.50;99.90;;;;;;5094213;28;20212;-71
2021/08/26 09:50:45;;;;;;;15.40;11.40;;;16.50;99.90;;;;;;5057632;28;20198;-71
2021/08/26 09:53:14;;;;;;;11.98;10.52;;;16.60;99.90;;;;;;5094187;28;20312;-71
2021/08/26 09:56:02;;;;;;;13.35;10.43;;;16.60;99.90;;;;;;5093461;28;20225;-71
2021/08/26 09:58:31;;;;;;;13.02;10.48;;;16.70;99.90;;;;;;5094149;28;20206;-71
2021/08/26 10:01:13;;;;;;;13.95;10.10;;;16.70;99.90;;;;;;5093720;28;20252;-71
2021/08/26 10:03:41;;;;;;;9.98;8.57;;;16.80;99.90;;;;;;5093425;28;20222;-71
2021/08/26 10:06:08;;;;;;;9.63;7.65;;;16.80;99.90;;;;;;5093582;28;20202;-71
2021/08/26 10:08:35;;;;;;;8.40;6.80;;;16.80;99.90;;;;;;5094022;28;20205;-71
2021/08/26 10:11:04;;;;;;;5.93;5.43;;;16.80;99.90;;;;;;5094032;28;20547;-71
2021/08/26 10:13:31;;;;;;;7.57;5.35;;;16.70;99.90;;;;;;5093349;28;20229;-71
2021/08/26 10:15:59;;;;;;;7.82;6.15;;;16.60;99.90;;;;;;5093184;28;20686;-71
2021/08/26 10:18:27;;;;;;;7.85;6.68;;;16.40;99.90;;;;;;5093255;28;20205;-71
2021/08/26 10:20:54;;;;;;;6.60;5.60;;;16.40;99.90;;;;;;5093777;28;20209;-71
2021/08/26 10:23:23;;;;;;;5.15;4.05;;;16.20;99.90;;;;;;5094052;28;20317;-71
2021/08/26 10:25:51;;;;;;;5.13;4.00;;;16.10;99.90;;;;;;5093444;28;20200;-71
2021/08/26 10:28:20;;;;;;;4.13;3.72;;;15.90;99.90;;;;;;5093466;28;20211;-71
2021/08/26 10:30:47;;;;;;;3.95;3.55;;;15.80;99.90;;;;;;5093580;28;20211;-71
2021/08/26 10:33:15;;;;;;;4.05;3.65;;;15.70;99.90;;;;;;5093800;28;20218;-71
2021/08/26 10:36:04;;;;;;;3.88;3.40;;;15.60;99.90;;;;;;5093088;28;20216;-71
2021/08/26 10:38:33;;;;;;;4.53;4.05;;;15.50;99.90;;;;;;5093351;28;20656;-71
2021/08/26 10:41:20;;;;;;;5.78;4.72;;;15.50;99.90;;;;;;5093278;28;20241;-71
2021/08/26 10:43:56;;;;;;;3.78;3.03;;;15.70;99.90;;;;;;5093460;28;20205;-71
2021/08/26 10:46:47;;;;;;;3.63;3.33;;;15.80;99.90;;;;;;5093001;28;20201;-71
2021/08/26 10:49:14;;;;;;;3.95;3.35;;;15.90;99.90;;;;;;5093417;28;20296;-71
2021/08/26 10:51:43;;;;;;;3.30;3.00;;;16.00;99.90;;;;;;5093220;28;20312;-71
2021/08/26 10:54:28;;;;;;;3.75;3.40;;;16.00;99.90;;;;;;5093793;28;20216;-71
2021/08/26 10:56:55;;;;;;;4.20;3.78;;;16.10;99.90;;;;;;5093399;28;20225;-71
2021/08/26 10:59:31;;;;;;;4.05;3.65;;;16.20;99.90;;;;;;5093180;28;20677;-71
2021/08/26 11:01:58;;;;;;;4.50;3.47;;;16.30;99.90;;;;;;5093975;28;20232;-71
2021/08/26 11:04:32;;;;;;;5.20;4.22;;;16.60;99.90;;;;;;5097332;28;20206;-71
2021/08/26 11:07:00;;;;;;;4.15;3.53;;;16.80;99.90;;;;;;5097005;28;20199;-71
2021/08/26 11:09:40;;;;;;;3.40;3.10;;;17.20;99.90;;;;;;5097203;28;20210;-71
2021/08/26 11:12:25;;;;;;;3.88;3.35;;;17.30;99.90;;;;;;5096836;28;20229;-71
2021/08/26 11:14:54;;;;;;;3.80;3.50;;;17.50;99.90;;;;;;5096798;28;20285;-72
2021/08/26 11:17:34;;;;;;;3.85;2.95;;;18.00;99.90;;;;;;5096889;28;20223;-72
2021/08/26 11:20:31;;;;;;;4.20;3.00;;;18.70;99.90;;;;;;5096973;28;20657;-71
2021/08/26 11:23:19;;;;;;;2.97;2.73;;;19.50;99.90;;;;;;5096846;28;20488;-72
2021/08/26 11:25:46;;;;;;;3.27;2.93;;;19.90;99.90;;;;;;5096713;28;20532;-72
2021/08/26 11:28:32;;;;;;;3.87;3.50;;;19.90;99.90;;;;;;5096787;28;20470;-72
2021/08/26 11:31:21;;;;;;;4.17;3.63;;;19.80;99.90;;;;;;5096238;28;21015;-72
2021/08/26 11:33:49;;;;;;;9.00;7.27;;;19.30;99.90;;;;;;5096777;28;20441;-72
2021/08/26 11:36:16;;;;;;;5.57;4.27;;;19.30;99.90;;;;;;5095893;28;20843;-72
2021/08/26 11:38:49;;;;;;;4.45;3.53;;;19.20;99.90;;;;;;5095950;28;20535;-72
2021/08/26 11:41:15;;;;;;;7.00;4.63;;;18.70;99.90;;;;;;5095696;28;20215;-72
2021/08/26 11:43:43;;;;;;;4.80;4.40;;;18.40;99.90;;;;;;5096072;28;20309;-72
2021/08/26 11:46:15;;;;;;;6.53;4.32;;;17.90;99.90;;;;;;5096091;28;20543;-72
2021/08/26 11:48:55;;;;;;;5.72;3.78;;;17.70;99.90;;;;;;5096422;28;20203;-71
2021/08/26 11:51:30;;;;;;;4.78;3.80;;;17.60;99.90;;;;;;5096286;28;20210;-72
2021/08/26 11:54:14;;;;;;;4.55;3.38;;;17.50;99.90;;;;;;5096266;28;20197;-72
2021/08/26 11:56:45;;;;;;;5.28;4.32;;;17.40;99.90;;;;;;5095808;28;20232;-72
2021/08/26 11:59:31;;;;;;;5.25;3.92;;;17.20;99.90;;;;;;5096242;28;20765;-72
2021/08/26 12:02:18;;;;;;;7.65;4.85;;;17.20;99.90;;;;;;5095876;28;20229;-71
2021/08/26 12:04:48;;;;;;;5.72;3.70;;;17.10;99.90;;;;;;5095813;28;20205;-71
2021/08/26 12:07:26;;;;;;;4.85;3.40;;;16.90;99.90;;;;;;5096014;28;20584;-71
2021/08/26 12:09:54;;;;;;;5.00;4.40;;;16.90;99.90;;;;;;5095517;28;20228;-71
2021/08/26 12:12:20;;;;;;;5.05;3.97;;;16.90;99.90;;;;;;5095548;28;20257;-72
2021/08/26 12:14:48;;;;;;;4.97;4.40;;;17.00;99.90;;;;;;5095029;28;20245;-71
2021/08/26 12:17:17;;;;;;;7.18;4.50;;;17.10;99.90;;;;;;5095414;28;20691;-72
2021/08/26 12:19:44;;;;;;;6.35;4.43;;;17.20;99.90;;;;;;5095662;28;20529;-72
2021/08/26 12:22:14;;;;;;;3.95;3.05;;;17.30;99.90;;;;;;5095453;28;20225;-72
2021/08/26 12:24:50;;;;;;;5.25;3.70;;;17.40;99.90;;;;;;5096017;28;20197;-71
2021/08/26 12:27:16;;;;;;;5.53;3.97;;;17.30;99.90;;;;;;5095481;28;20197;-72
2021/08/26 12:29:45;;;;;;;4.93;3.90;;;17.40;99.90;;;;;;5095290;28;20656;-72
2021/08/26 12:32:32;;;;;;;3.55;2.92;;;17.40;99.90;;;;;;5095406;28;20224;-72
2021/08/26 12:35:16;;;;;;;5.60;3.75;;;17.60;99.90;;;;;;5095644;28;20556;-72
2021/08/26 12:37:57;;;;;;;4.47;3.63;;;17.70;99.90;;;;;;5094902;28;20721;-71
2021/08/26 12:40:26;;;;;;;5.50;3.40;;;17.90;99.90;;;;;;5095305;28;20244;-71
2021/08/26 12:42:57;;;;;;;5.35;3.60;;;18.00;99.90;;;;;;5094619;28;20236;-72
2021/08/26 12:45:24;;;;;;;4.35;3.70;;;18.10;99.90;;;;;;5095288;28;20206;-72
2021/08/26 12:47:51;;;;;;;4.53;3.55;;;18.20;99.90;;;;;;5094957;28;20281;-72
2021/08/26 12:50:30;;;;;;;5.28;4.00;;;18.30;99.90;;;;;;5094752;28;20293;-72
2021/08/26 12:52:59;;;;;;;4.72;3.70;;;18.40;99.90;;;;;;5094959;28;20692;-72
2021/08/26 12:55:26;;;;;;;4.32;3.72;;;18.60;99.90;;;;;;5094701;28;20255;-72
2021/08/26 12:58:11;;;;;;;4.10;3.65;;;18.60;99.90;;;;;;5094464;28;20228;-72